createdAt,value
2018-02-06T00:02:09.559Z,61.60
2018-02-06T00:04:37.838Z,60.90
2018-02-06T00:07:06.111Z,61.00
2018-02-06T00:09:34.403Z,61.00
2018-02-06T00:12:01.904Z,60.90
2018-02-06T00:14:29.403Z,60.90
2018-02-06T00:16:57.675Z,60.80
2018-02-06T00:19:25.932Z,60.90
2018-02-06T00:21:54.219Z,60.70
2018-02-06T00:24:21.708Z,60.70
2018-02-06T00:26:49.198Z,60.40
2018-02-06T00:29:16.694Z,60.10
2018-02-06T00:31:44.189Z,59.70
2018-02-06T00:34:11.714Z,59.60
2018-02-06T00:36:39.214Z,59.50
2018-02-06T00:39:06.726Z,59.90
2018-02-06T00:41:34.241Z,60.30
2018-02-06T00:44:01.730Z,59.90
2018-02-06T00:46:30.034Z,60.60
2018-02-06T00:48:58.294Z,60.90
2018-02-06T00:51:25.792Z,60.80
2018-02-06T00:53:53.310Z,61.90
2018-02-06T00:56:20.802Z,61.10
2018-02-06T00:58:48.318Z,61.30
2018-02-06T01:01:15.834Z,61.60
2018-02-06T01:03:43.329Z,61.90
2018-02-06T01:06:10.841Z,62.00
2018-02-06T01:08:38.334Z,62.30
2018-02-06T01:11:05.839Z,62.30
2018-02-06T01:13:34.116Z,62.00
2018-02-06T01:16:02.419Z,62.10
2018-02-06T01:18:30.650Z,62.10
2018-02-06T01:20:58.155Z,62.00
2018-02-06T01:23:25.654Z,62.40
2018-02-06T01:25:53.146Z,61.60
2018-02-06T01:28:21.415Z,60.80
2018-02-06T01:30:49.679Z,60.70
2018-02-06T01:33:17.173Z,60.60
2018-02-06T01:35:44.711Z,60.70
2018-02-06T01:38:12.982Z,60.70
2018-02-06T01:40:41.242Z,60.60
2018-02-06T01:43:08.742Z,60.60
2018-02-06T01:45:36.247Z,60.80
2018-02-06T01:48:03.762Z,60.50
2018-02-06T01:50:31.250Z,60.90
2018-02-06T01:52:58.764Z,61.60
2018-02-06T01:55:26.266Z,61.90
2018-02-06T01:57:53.780Z,61.90
2018-02-06T02:00:21.291Z,61.20
2018-02-06T02:02:48.803Z,61.10
2018-02-06T02:05:16.302Z,60.80
2018-02-06T02:07:43.810Z,60.50
2018-02-06T02:10:12.083Z,61.20
2018-02-06T02:12:40.350Z,61.60
2018-02-06T02:15:08.615Z,61.60
2018-02-06T02:17:36.107Z,61.50
2018-02-06T02:20:03.610Z,61.80
2018-02-06T02:22:31.098Z,61.90
2018-02-06T02:24:59.363Z,61.90
2018-02-06T02:27:26.892Z,61.90
2018-02-06T02:29:54.391Z,62.00
2018-02-06T02:32:22.667Z,61.70
2018-02-06T02:34:50.932Z,61.80
2018-02-06T02:37:18.438Z,61.70
2018-02-06T02:39:45.938Z,61.70
2018-02-06T04:40:37.928Z,56.70
2018-02-06T04:43:05.419Z,57.10
2018-02-06T04:45:32.954Z,56.90
2018-02-06T04:48:00.447Z,57.50
2018-02-06T04:50:27.954Z,56.30
2018-02-06T04:52:55.450Z,56.80
2018-02-06T04:55:22.939Z,56.20
2018-02-06T04:57:51.191Z,56.50
2018-02-06T05:00:18.691Z,56.40
2018-02-06T05:02:46.191Z,56.60
2018-02-06T05:05:13.708Z,56.60
2018-02-06T05:07:41.210Z,56.30
2018-02-06T05:10:08.706Z,56.30
2018-02-06T05:12:36.962Z,56.50
2018-02-06T05:15:04.465Z,56.50
2018-02-06T05:17:31.974Z,56.90
2018-02-06T05:19:59.554Z,56.30
2018-02-06T05:22:27.807Z,56.40
2018-02-06T05:24:56.806Z,56.60
2018-02-06T05:27:24.304Z,57.10
2018-02-06T05:29:51.803Z,56.90
2018-02-06T05:32:19.298Z,56.70
2018-02-06T05:34:47.562Z,56.50
2018-02-06T05:37:15.055Z,56.50
2018-02-06T05:39:42.566Z,56.00
2018-02-06T05:42:10.062Z,56.10
2018-02-06T05:44:37.586Z,56.50
2018-02-06T05:47:05.095Z,56.90
2018-02-06T05:49:32.596Z,56.60
2018-02-06T05:52:00.097Z,56.80
2018-02-06T05:54:27.597Z,57.00
2018-02-06T05:56:55.094Z,56.90
2018-02-06T05:59:23.351Z,56.70
2018-02-06T06:01:50.855Z,56.60
2018-02-06T06:04:18.350Z,56.50
2018-02-06T06:06:45.851Z,56.30
2018-02-06T06:09:14.127Z,56.10
2018-02-06T06:11:42.394Z,55.90
2018-02-06T06:14:10.655Z,55.60
2018-02-06T06:16:38.143Z,55.60
2018-02-06T06:19:05.658Z,55.70
2018-02-06T06:21:33.151Z,55.50
2018-02-06T06:24:01.426Z,55.10
2018-02-06T06:26:29.690Z,55.20
2018-02-06T06:28:57.198Z,55.10
2018-02-06T06:31:24.703Z,55.10
2018-02-06T06:33:52.195Z,55.40
2018-02-06T06:36:19.695Z,55.40
2018-02-06T06:38:47.197Z,55.60
2018-02-06T06:41:15.475Z,56.00
2018-02-06T06:43:43.750Z,56.00
2018-02-06T06:46:12.019Z,56.10
2018-02-06T06:48:40.278Z,56.20
2018-02-06T06:51:07.779Z,56.20
2018-02-06T06:53:35.291Z,56.10
2018-02-06T06:56:02.800Z,55.80
2018-02-06T06:58:30.294Z,56.00
2018-02-06T07:00:57.789Z,56.30
2018-02-06T07:03:26.051Z,56.60
2018-02-06T07:05:53.563Z,56.60
2018-02-06T07:08:21.055Z,56.60
2018-02-06T07:10:48.574Z,56.50
2018-02-06T07:13:16.071Z,56.10
2018-02-06T07:15:44.359Z,56.50
2018-02-06T07:18:11.872Z,56.40
2018-02-06T07:20:39.382Z,57.20
2018-02-06T07:23:06.875Z,56.90
2018-02-06T07:25:34.370Z,56.50
2018-02-06T07:28:01.854Z,56.10
2018-02-06T07:30:30.123Z,56.60
2018-02-06T07:32:57.621Z,56.80
2018-02-06T07:35:25.124Z,56.30
2018-02-06T07:37:52.615Z,56.30
2018-02-06T07:40:20.898Z,56.10
2018-02-06T07:42:49.170Z,56.20
2018-02-06T07:45:17.431Z,56.00
2018-02-06T07:47:44.931Z,56.00
2018-02-06T07:50:12.442Z,56.00
2018-02-06T07:52:39.932Z,55.40
2018-02-06T07:55:07.434Z,55.30
2018-02-06T07:57:34.931Z,55.20
2018-02-06T08:00:03.227Z,55.00
2018-02-06T08:02:31.487Z,54.90
2018-02-06T08:04:59.751Z,54.90
2018-02-06T08:07:27.251Z,54.90
2018-02-06T08:09:54.743Z,54.80
2018-02-06T08:12:22.279Z,54.10
2018-02-06T08:14:49.758Z,54.00
2018-02-06T08:17:17.259Z,54.00
2018-02-06T08:19:45.527Z,53.90
2018-02-06T08:22:13.794Z,53.90
2018-02-06T08:24:41.300Z,53.70
2018-02-06T08:27:08.795Z,53.70
2018-02-06T08:29:36.291Z,52.80
2018-02-06T08:32:04.559Z,52.70
2018-02-06T08:34:32.831Z,53.20
2018-02-06T08:37:01.112Z,53.20
2018-02-06T08:39:29.420Z,53.20
2018-02-06T08:41:56.931Z,53.10
2018-02-06T08:44:24.430Z,53.00
2018-02-06T08:46:51.926Z,53.50
2018-02-06T08:49:19.427Z,53.30
2018-02-06T08:51:47.686Z,52.50
2018-02-06T08:54:15.194Z,52.50
2018-02-06T08:56:42.740Z,52.40
2018-02-06T08:59:10.235Z,52.30
2018-02-06T09:01:37.732Z,51.70
2018-02-06T09:04:06.209Z,51.40
2018-02-06T09:06:34.471Z,51.00
2018-02-06T09:09:01.969Z,51.00
2018-02-06T09:11:29.470Z,51.00
2018-02-06T09:13:57.158Z,51.60
2018-02-06T09:16:25.428Z,51.80
2018-02-06T09:18:53.703Z,52.00
2018-02-06T09:21:21.190Z,52.00
2018-02-06T09:23:48.687Z,52.20
2018-02-06T09:26:16.191Z,51.30
2018-02-06T09:28:44.446Z,52.30
2018-02-06T09:31:11.952Z,52.20
2018-02-06T09:33:39.447Z,52.30
2018-02-06T09:36:06.955Z,52.00
2018-02-06T09:38:34.458Z,52.10
2018-02-06T09:41:01.982Z,51.70
2018-02-06T09:43:29.471Z,52.00
2018-02-06T09:45:56.959Z,52.80
2018-02-06T09:48:24.466Z,52.60
2018-02-06T09:50:52.078Z,53.40
2018-02-06T09:53:20.382Z,53.00
2018-02-06T09:55:47.867Z,53.00
2018-02-06T09:58:15.486Z,53.30
2018-02-06T10:00:43.743Z,53.40
2018-02-06T10:03:11.234Z,53.40
2018-02-06T10:05:39.550Z,53.90
2018-02-06T10:08:07.162Z,53.90
2018-02-06T10:10:35.426Z,53.80
2018-02-06T10:13:02.930Z,53.80
2018-02-06T10:15:30.421Z,54.30
2018-02-06T10:17:57.916Z,54.00
2018-02-06T10:20:26.183Z,53.20
2018-02-06T10:22:54.450Z,53.60
2018-02-06T10:25:21.946Z,53.50
2018-02-06T10:27:49.587Z,52.90
2018-02-06T10:30:17.960Z,53.40
2018-02-06T10:32:46.228Z,53.60
2018-02-06T10:35:14.499Z,53.50
2018-02-06T10:37:41.999Z,53.40
2018-02-06T10:40:09.494Z,54.30
2018-02-06T10:42:36.986Z,53.70
2018-02-06T10:45:05.251Z,54.10
2018-02-06T10:47:32.745Z,54.10
2018-02-06T10:50:00.238Z,54.20
2018-02-06T10:52:27.742Z,53.80
2018-02-06T10:54:56.018Z,53.50
2018-02-06T10:57:24.291Z,53.50
2018-02-06T10:59:52.561Z,53.50
2018-02-06T11:02:20.838Z,53.50
2018-02-06T11:04:49.094Z,53.60
2018-02-06T11:07:16.586Z,53.60
2018-02-06T11:09:44.845Z,53.30
2018-02-06T11:12:13.106Z,53.50
2018-02-06T11:14:40.800Z,53.50
2018-02-06T11:17:09.063Z,53.00
2018-02-06T11:19:37.334Z,53.40
2018-02-06T11:22:05.598Z,53.50
2018-02-06T11:24:33.094Z,53.50
2018-02-06T11:27:00.591Z,52.70
2018-02-06T11:29:28.083Z,54.10
2018-02-06T11:31:56.346Z,52.80
2018-02-06T11:34:25.362Z,52.40
2018-02-06T11:36:53.618Z,52.00
2018-02-06T11:39:22.623Z,52.20
2018-02-06T11:41:50.117Z,52.20
2018-02-06T11:44:17.607Z,52.50
2018-02-06T11:46:45.314Z,52.60
2018-02-06T11:49:13.582Z,52.70
2018-02-06T11:51:41.844Z,52.40
2018-02-06T11:54:09.359Z,52.30
2018-02-06T11:56:36.986Z,52.20
2018-02-06T11:59:05.239Z,51.20
2018-02-06T12:01:32.739Z,51.20
2018-02-06T12:04:00.235Z,51.50
2018-02-06T12:06:27.745Z,52.10
2018-02-06T12:08:56.017Z,51.30
2018-02-06T12:11:24.282Z,51.30
2018-02-06T12:13:52.535Z,51.20
2018-02-06T12:16:20.031Z,51.20
2018-02-06T12:18:48.287Z,51.30
2018-02-06T12:21:16.563Z,51.30
2018-02-06T12:23:44.838Z,51.50
2018-02-06T12:26:12.326Z,51.50
2018-02-06T12:28:39.842Z,51.30
2018-02-06T12:31:07.335Z,50.90
2018-02-06T12:33:34.831Z,51.20
2018-02-06T12:36:02.334Z,51.60
2018-02-06T12:38:30.602Z,50.80
2018-02-06T12:40:58.103Z,50.80
2018-02-06T12:43:26.475Z,51.30
2018-02-06T12:45:53.990Z,50.90
2018-02-06T12:48:21.487Z,50.70
2018-02-06T12:50:48.989Z,50.70
2018-02-06T12:53:16.512Z,49.60
2018-02-06T12:55:44.142Z,49.00
2018-02-06T12:58:12.527Z,49.50
2018-02-06T13:00:40.055Z,49.50
2018-02-06T13:03:08.345Z,49.60
2018-02-06T13:05:36.030Z,49.10
2018-02-06T13:08:04.418Z,50.00
2018-02-06T13:10:31.919Z,50.00
2018-02-06T13:12:59.438Z,50.00
2018-02-06T13:15:26.942Z,50.40
2018-02-06T13:17:54.531Z,51.30
2018-02-06T13:20:22.918Z,51.60
2018-02-06T13:22:51.183Z,51.70
2018-02-06T13:25:18.669Z,51.80
2018-02-06T13:27:46.174Z,51.80
2018-02-06T13:30:13.666Z,52.60
2018-02-06T13:32:41.936Z,53.20
2018-02-06T13:35:10.222Z,53.90
2018-02-06T13:37:38.483Z,53.80
2018-02-06T13:40:05.995Z,53.80
2018-02-06T13:42:33.502Z,54.50
2018-02-06T13:45:00.992Z,54.60
2018-02-06T13:47:28.487Z,54.30
2018-02-06T13:49:55.996Z,54.10
2018-02-06T13:52:24.367Z,53.30
2018-02-06T13:54:52.635Z,52.70
2018-02-06T13:57:21.692Z,52.10
2018-02-06T13:59:49.191Z,52.10
2018-02-06T14:02:17.458Z,51.60
2018-02-06T14:04:44.966Z,51.60
2018-02-06T14:07:12.478Z,51.20
2018-02-06T14:09:39.987Z,52.80
2018-02-06T14:12:07.482Z,53.20
2018-02-06T14:14:35.001Z,53.20
2018-02-06T14:17:02.507Z,53.10
2018-02-06T14:19:30.008Z,52.50
2018-02-06T14:21:57.518Z,51.70
2018-02-06T14:24:25.023Z,51.30
2018-02-06T14:26:52.515Z,51.20
2018-02-06T14:29:20.218Z,51.80
2018-02-06T14:31:48.479Z,51.20
2018-02-06T14:34:16.158Z,51.20
2018-02-06T14:36:44.638Z,50.50
2018-02-06T14:39:12.890Z,50.80
2018-02-06T14:41:40.401Z,50.80
2018-02-06T14:44:07.898Z,51.20
2018-02-06T14:46:35.382Z,52.30
2018-02-06T14:49:03.648Z,53.30
2018-02-06T14:51:31.138Z,53.30
2018-02-06T14:53:58.631Z,53.60
2018-02-06T14:56:26.122Z,54.80
2018-02-06T14:58:54.490Z,56.30
2018-02-06T15:01:22.018Z,56.00
2018-02-06T15:03:49.522Z,56.60
2018-02-06T15:06:17.013Z,57.10
2018-02-06T15:08:44.502Z,57.20
2018-02-06T15:11:11.994Z,57.20
2018-02-06T15:13:39.491Z,57.40
2018-02-06T15:16:07.002Z,58.10
2018-02-06T15:18:34.495Z,58.10
2018-02-06T15:21:02.151Z,58.60
2018-02-06T15:23:30.407Z,59.60
2018-02-06T15:25:58.082Z,59.60
2018-02-06T15:28:26.335Z,60.30
2018-02-06T15:30:53.827Z,60.10
2018-02-06T15:33:21.327Z,60.80
2018-02-06T15:35:48.836Z,61.30
2018-02-06T15:38:17.101Z,62.60
2018-02-06T15:40:45.474Z,63.10
2018-02-06T15:43:12.973Z,63.00
2018-02-06T15:45:40.490Z,63.50
2018-02-06T15:48:08.071Z,63.80
2018-02-06T15:50:36.331Z,64.90
2018-02-06T15:53:04.596Z,65.30
2018-02-06T15:55:32.091Z,65.30
2018-02-06T15:57:59.730Z,65.50
2018-02-06T16:00:45.785Z,66.80
2018-02-06T16:03:13.287Z,66.80
2018-02-06T16:05:41.558Z,67.20
2018-02-06T16:08:09.822Z,67.10
2018-02-06T16:10:37.323Z,67.10
2018-02-06T16:13:04.818Z,67.70
2018-02-06T16:15:32.514Z,67.80
2018-02-06T16:18:00.766Z,68.70
2018-02-06T16:20:28.266Z,68.70
2018-02-06T16:22:55.769Z,68.90
2018-02-06T16:25:23.259Z,69.00
2018-02-06T16:27:51.545Z,69.60
2018-02-06T16:30:19.911Z,69.40
2018-02-06T16:32:47.424Z,69.40
2018-02-06T16:35:14.922Z,69.50
2018-02-06T16:37:42.426Z,69.40
2018-02-06T16:40:09.980Z,69.40
2018-02-06T16:42:38.218Z,69.60
2018-02-06T16:45:05.716Z,69.50
2018-02-06T16:47:33.215Z,69.50
2018-02-06T16:50:00.706Z,69.70
2018-02-06T16:52:28.982Z,69.70
2018-02-06T16:54:57.250Z,70.00
2018-02-06T16:57:25.506Z,70.00
2018-02-06T16:59:52.999Z,70.00
2018-02-06T17:15:48.185Z,70.90
2018-02-06T17:18:16.447Z,71.20
2018-02-06T17:20:45.450Z,71.20
2018-02-06T17:23:13.719Z,71.20
2018-02-06T17:25:41.213Z,71.20
2018-02-06T17:28:08.718Z,71.20
2018-02-06T17:30:36.224Z,71.20
2018-02-06T17:33:03.730Z,71.40
2018-02-06T17:35:31.234Z,71.30
2018-02-06T17:37:59.498Z,71.00
2018-02-06T17:40:27.762Z,71.10
2018-02-06T17:42:55.273Z,71.10
2018-02-06T17:45:22.771Z,71.70
2018-02-06T17:47:50.268Z,71.00
2018-02-06T17:50:17.780Z,71.00
2018-02-06T17:52:45.294Z,71.10
2018-02-06T17:55:12.830Z,71.20
2018-02-06T17:57:41.092Z,71.50
2018-02-06T18:00:09.354Z,71.70
2018-02-06T18:02:37.619Z,71.70
2018-02-06T18:05:05.121Z,71.80
2018-02-06T18:07:33.390Z,71.80
2018-02-06T18:10:01.650Z,71.70
2018-02-06T18:12:29.174Z,71.70
2018-02-06T18:14:56.674Z,71.50
2018-02-06T18:17:24.938Z,71.80
2018-02-06T18:19:52.455Z,71.80
2018-02-06T18:22:19.951Z,71.70
2018-02-06T18:24:47.460Z,71.80
2018-02-06T18:27:14.958Z,71.70
2018-02-06T18:29:42.446Z,71.60
2018-02-06T18:32:10.722Z,71.10
2018-02-06T18:34:39.113Z,70.80
2018-02-06T18:37:07.371Z,70.50
2018-02-06T18:39:35.631Z,70.30
2018-02-06T18:42:03.319Z,70.20
2018-02-06T18:44:31.798Z,70.20
2018-02-06T18:47:00.086Z,70.00
2018-02-06T18:49:27.586Z,70.00
2018-02-06T18:51:55.078Z,70.00
2018-02-06T18:54:22.567Z,70.20
2018-02-06T18:56:50.067Z,70.00
2018-02-06T18:59:17.559Z,70.20
2018-02-06T19:01:45.838Z,70.30
2018-02-06T19:04:14.105Z,70.40
2018-02-06T19:06:41.600Z,70.40
2018-02-06T19:09:09.101Z,70.60
2018-02-06T19:11:36.616Z,70.40
2018-02-06T19:14:04.119Z,70.30
2018-02-06T19:16:31.815Z,70.30
2018-02-06T19:19:00.107Z,70.30
2018-02-06T19:21:27.619Z,70.30
2018-02-06T19:23:55.113Z,70.20
2018-02-06T19:26:23.371Z,70.40
2018-02-06T19:28:50.886Z,70.30
2018-02-06T19:31:18.380Z,70.60
2018-02-06T19:33:45.871Z,70.50
2018-02-06T19:36:13.388Z,70.50
2018-02-06T19:38:40.886Z,70.60
2018-02-06T19:41:08.538Z,70.70
2018-02-06T19:43:36.798Z,70.50
2018-02-06T19:46:04.298Z,70.50
2018-02-06T19:48:31.824Z,70.70
2018-02-06T19:51:00.082Z,70.30
2018-02-06T19:53:27.571Z,70.30
2018-02-06T19:55:55.851Z,70.00
2018-02-06T19:58:23.395Z,70.10
2018-02-06T20:00:51.659Z,70.40
2018-02-06T20:03:19.172Z,70.40
2018-02-06T20:05:46.678Z,71.20
2018-02-06T20:08:14.172Z,70.60
2018-02-06T20:10:41.812Z,70.70
2018-02-06T20:13:09.319Z,70.80
2018-02-06T20:15:36.821Z,70.90
2018-02-06T20:18:05.095Z,70.50
2018-02-06T20:20:33.359Z,70.40
2018-02-06T20:23:00.846Z,70.30
2018-02-06T20:25:28.491Z,70.20
2018-02-06T20:27:56.755Z,69.50
2018-02-06T20:30:24.456Z,69.50
2018-02-06T20:32:51.963Z,69.70
2018-02-06T20:35:19.455Z,69.40
2018-02-06T20:37:47.730Z,69.80
2018-02-06T20:40:16.011Z,69.80
2018-02-06T20:42:44.271Z,69.70
2018-02-06T20:45:11.774Z,69.70
2018-02-06T20:47:39.275Z,69.80
2018-02-06T20:50:06.778Z,70.10
2018-02-06T20:52:34.278Z,69.70
2018-02-06T20:55:01.786Z,69.40
2018-02-06T20:57:29.275Z,69.40
2018-02-06T20:59:56.775Z,69.20
2018-02-06T21:02:24.266Z,69.10
2018-02-06T21:04:51.761Z,70.00
2018-02-06T21:07:19.364Z,69.30
2018-02-06T21:09:47.630Z,69.40
2018-02-06T21:12:15.150Z,69.40
2018-02-06T21:14:42.641Z,69.60
2018-02-06T21:17:10.911Z,69.90
2018-02-06T21:22:37.082Z,70.00
2018-02-06T21:25:05.346Z,70.20
2018-02-06T21:27:32.835Z,70.10
2018-02-06T21:30:00.342Z,70.70
2018-02-06T21:32:27.834Z,70.10
2018-02-06T21:34:56.094Z,70.30
2018-02-06T21:37:23.702Z,70.20
2018-02-06T21:39:51.253Z,70.50
2018-02-06T21:42:18.755Z,70.10
2018-02-06T21:44:46.362Z,70.00
2018-02-06T21:47:13.872Z,69.90
2018-02-06T21:49:41.378Z,69.80
2018-02-06T21:52:08.882Z,69.80
2018-02-06T21:54:36.582Z,69.80
2018-02-06T21:57:04.963Z,69.60
2018-02-06T21:59:33.222Z,69.50
2018-02-06T22:02:00.720Z,69.40
2018-02-06T22:04:28.211Z,69.50
2018-02-06T22:06:55.709Z,69.50
2018-02-06T22:09:23.974Z,69.80
2018-02-06T22:11:51.482Z,69.80
2018-02-06T22:14:18.988Z,69.80
2018-02-06T22:16:46.493Z,69.80
2018-02-06T22:19:13.987Z,69.70
2018-02-06T22:21:42.401Z,69.50
2018-02-06T22:24:10.674Z,69.40
2018-02-06T22:26:38.931Z,69.40
2018-02-06T22:29:06.426Z,69.40
2018-02-06T22:31:34.070Z,69.30
2018-02-06T22:34:02.326Z,69.20
2018-02-06T22:36:31.327Z,69.20
2018-02-06T22:38:58.827Z,69.10
2018-02-06T22:41:26.322Z,70.00
2018-02-06T22:43:53.961Z,69.00
2018-02-06T22:46:21.451Z,69.10
2018-02-06T22:48:48.944Z,69.10
2018-02-06T22:51:17.199Z,68.90
2018-02-06T22:53:44.871Z,68.90
2018-02-06T22:56:13.138Z,69.00
2018-02-06T22:58:40.634Z,69.00
2018-02-06T23:01:08.118Z,69.00
2018-02-06T23:03:35.623Z,69.10
2018-02-06T23:06:03.886Z,68.90
2018-02-06T23:08:31.381Z,68.90
2018-02-06T23:10:58.871Z,69.10
2018-02-06T23:13:26.362Z,68.70
2018-02-06T23:15:54.039Z,68.70
2018-02-06T23:18:22.294Z,68.80
2018-02-06T23:20:49.797Z,68.70
2018-02-06T23:23:17.427Z,68.70
2018-02-06T23:25:45.690Z,68.80
2018-02-06T23:28:13.192Z,68.70
2018-02-06T23:30:40.702Z,69.10
2018-02-06T23:33:09.723Z,69.00
2018-02-06T23:35:37.987Z,69.10
2018-02-06T23:38:06.243Z,69.10
2018-02-06T23:40:33.744Z,69.10
2018-02-06T23:43:01.240Z,69.40
2018-02-06T23:45:28.739Z,69.60
2018-02-06T23:47:56.998Z,70.10
2018-02-06T23:50:24.502Z,69.90
2018-02-06T23:52:51.995Z,70.10
2018-02-06T23:55:19.498Z,70.10
2018-02-06T23:57:47.758Z,70.10
